Time;durP1;ratioP1;P1;durP2;ratioP2;P2;SDS_P1;SDS_P2;PMS_P1;PMS_P2;Temp;Humidity;BMP_temperature;BMP_pressure;BME280_temperature;BME280_humidity;BME280_pressure;Samples;Min_cycle;Max_cycle;Signal;HPM_P1;HPM_P2
2022/12/22 03:33:15;;;;;;;2.60;0.90;;;10.00;99.90;;;;;;5014291;28;20468;-76
2022/12/22 03:35:43;;;;;;;1.10;1.00;;;10.00;99.90;;;;;;5013350;28;20454;-75
2022/12/22 03:38:08;;;;;;;2.00;1.27;;;10.00;99.90;;;;;;5012293;28;20994;-74
2022/12/22 03:40:34;;;;;;;0.93;0.67;;;10.00;99.90;;;;;;5012453;28;20423;-72
2022/12/22 03:48:28;;;;;;;5.80;1.00;;;10.00;99.90;;;;;;5010760;28;20908;-75
2022/12/22 03:50:53;;;;;;;1.90;0.67;;;10.00;99.90;;;;;;5013927;28;20535;-74
2022/12/22 03:53:19;;;;;;;0.90;0.70;;;10.00;99.90;;;;;;5012750;28;20524;-74
2022/12/22 03:55:44;;;;;;;0.93;0.73;;;10.00;99.90;;;;;;5012375;28;20569;-76
2022/12/22 03:58:10;;;;;;;1.10;0.60;;;10.00;99.90;;;;;;5012003;28;20178;-75
2022/12/22 04:00:35;;;;;;;2.00;0.60;;;10.10;99.90;;;;;;5012040;28;20201;-74
2022/12/22 04:03:01;;;;;;;4.10;0.60;;;10.10;99.90;;;;;;5012201;28;20650;-74
2022/12/22 04:05:26;;;;;;;1.53;0.80;;;10.10;99.90;;;;;;5011681;28;20186;-74
2022/12/22 04:07:52;;;;;;;2.40;0.60;;;10.10;99.90;;;;;;5011843;28;20182;-74
2022/12/22 04:13:01;;;;;;;1.10;0.60;;;10.10;99.90;;;;;;5011765;28;20681;-74
2022/12/22 04:15:30;;;;;;;0.63;0.60;;;10.20;99.90;;;;;;5011590;28;20433;-74
2022/12/22 04:17:56;;;;;;;0.73;0.60;;;10.30;99.90;;;;;;5011973;28;20223;-74
2022/12/22 04:20:25;;;;;;;0.70;0.67;;;10.30;99.90;;;;;;5011736;28;21131;-73
2022/12/22 04:22:51;;;;;;;3.37;0.90;;;10.40;99.90;;;;;;5011616;28;20432;-74
2022/12/22 04:25:17;;;;;;;1.33;0.60;;;10.30;99.90;;;;;;5010975;28;20421;-74
2022/12/22 04:27:43;;;;;;;0.60;0.60;;;10.30;99.90;;;;;;5012075;28;20958;-74
2022/12/22 04:30:09;;;;;;;2.57;0.60;;;10.40;99.90;;;;;;5011535;28;20185;-73
2022/12/22 04:32:34;;;;;;;0.73;0.73;;;10.40;99.90;;;;;;5011518;28;20202;-74
2022/12/22 04:35:00;;;;;;;0.80;0.60;;;10.40;99.90;;;;;;5011324;28;20512;-74
2022/12/22 04:37:25;;;;;;;1.47;0.73;;;10.40;99.90;;;;;;4992113;28;20171;-74
2022/12/22 04:39:51;;;;;;;1.97;0.87;;;10.30;99.90;;;;;;4991880;28;20539;-76
2022/12/22 04:42:16;;;;;;;0.80;0.60;;;10.30;99.90;;;;;;4991569;28;20561;-75
2022/12/22 04:44:42;;;;;;;0.77;0.60;;;10.30;99.90;;;;;;5006074;28;20185;-74
2022/12/22 04:47:07;;;;;;;1.07;0.67;;;10.30;99.90;;;;;;5011248;28;20178;-74
2022/12/22 04:49:33;;;;;;;0.70;0.70;;;10.30;99.90;;;;;;4993920;28;20275;-74
2022/12/22 04:51:58;;;;;;;0.83;0.70;;;10.30;99.90;;;;;;5014070;28;20247;-74
2022/12/22 04:54:24;;;;;;;0.67;0.60;;;10.20;99.90;;;;;;5015315;28;20638;-74
2022/12/22 04:56:50;;;;;;;2.23;1.03;;;10.20;99.90;;;;;;5015248;28;20194;-74
2022/12/22 04:59:15;;;;;;;3.57;0.73;;;10.10;99.90;;;;;;5015440;28;20185;-74
2022/12/22 05:01:41;;;;;;;0.70;0.60;;;10.20;99.90;;;;;;5015077;28;20199;-74
2022/12/22 05:04:06;;;;;;;1.50;0.70;;;10.20;99.90;;;;;;5015407;28;20178;-75
2022/12/22 05:06:32;;;;;;;0.80;0.70;;;10.20;99.90;;;;;;5014110;28;20241;-74
2022/12/22 05:08:58;;;;;;;0.80;0.60;;;10.10;99.90;;;;;;5014485;28;20202;-75
2022/12/22 05:11:23;;;;;;;3.23;0.77;;;10.10;99.90;;;;;;5013765;28;20432;-74
2022/12/22 05:13:49;;;;;;;0.90;0.53;;;10.10;99.90;;;;;;5014974;28;20708;-73
2022/12/22 05:16:16;;;;;;;0.70;0.50;;;10.10;99.90;;;;;;5013883;28;20193;-74
2022/12/22 05:18:43;;;;;;;0.70;0.70;;;10.10;99.90;;;;;;5014605;28;20253;-75
2022/12/22 05:21:14;;;;;;;2.60;0.80;;;10.20;99.90;;;;;;5014620;28;20571;-74
2022/12/22 05:23:40;;;;;;;4.40;0.80;;;10.20;99.90;;;;;;5014643;28;20467;-75
2022/12/22 05:26:06;;;;;;;1.60;1.43;;;10.20;99.90;;;;;;5014271;28;20413;-74
2022/12/22 05:28:32;;;;;;;1.40;0.80;;;10.30;99.90;;;;;;5014874;28;20336;-75
2022/12/22 05:31:06;;;;;;;2.20;0.73;;;10.30;99.90;;;;;;5014656;28;20920;-75
2022/12/22 05:33:32;;;;;;;4.53;0.80;;;10.30;99.90;;;;;;5014118;28;20192;-75
2022/12/22 05:35:58;;;;;;;1.43;0.70;;;10.40;99.90;;;;;;5014789;28;20901;-75
2022/12/22 05:38:23;;;;;;;4.63;0.93;;;10.40;99.90;;;;;;5014586;28;20499;-74
2022/12/22 05:40:49;;;;;;;2.47;0.87;;;10.40;99.90;;;;;;5014499;28;20225;-74
2022/12/22 05:43:15;;;;;;;1.60;0.80;;;10.40;99.90;;;;;;5014174;28;20209;-73
2022/12/22 05:45:43;;;;;;;0.90;0.80;;;10.30;99.90;;;;;;5014596;28;20615;-74
2022/12/22 05:48:08;;;;;;;1.60;0.83;;;10.30;99.90;;;;;;5014355;28;20484;-74
2022/12/22 05:50:34;;;;;;;3.83;0.70;;;10.40;99.90;;;;;;5014229;28;20412;-75
2022/12/22 05:53:00;;;;;;;3.90;0.97;;;10.30;99.90;;;;;;5013992;28;20181;-73
2022/12/22 05:55:25;;;;;;;0.80;0.50;;;10.40;99.90;;;;;;5014135;28;20235;-74
2022/12/22 05:57:51;;;;;;;3.70;1.13;;;10.40;99.90;;;;;;5014440;28;20634;-73
2022/12/22 06:00:17;;;;;;;1.67;0.60;;;10.30;99.90;;;;;;5013989;28;20206;-74
2022/12/22 06:02:43;;;;;;;1.63;0.83;;;10.30;99.90;;;;;;5012482;28;20202;-74
2022/12/22 06:05:10;;;;;;;1.33;0.70;;;10.20;99.90;;;;;;5013981;28;20781;-74
2022/12/22 06:07:36;;;;;;;2.60;0.70;;;10.20;99.90;;;;;;5014004;28;20413;-73
2022/12/22 06:10:03;;;;;;;2.10;0.73;;;10.10;99.90;;;;;;5014010;28;20831;-74
2022/12/22 06:12:29;;;;;;;2.77;0.97;;;10.10;99.90;;;;;;5013676;28;20283;-74
2022/12/22 06:14:54;;;;;;;1.97;1.00;;;10.00;99.90;;;;;;5013726;28;20571;-73
2022/12/22 06:17:20;;;;;;;7.97;1.13;;;10.00;99.90;;;;;;5013811;28;20554;-74
2022/12/22 06:19:45;;;;;;;2.70;1.00;;;9.90;99.90;;;;;;5029187;28;20184;-74
2022/12/22 06:22:11;;;;;;;1.63;0.60;;;9.90;99.90;;;;;;5013114;28;20222;-75
2022/12/22 06:24:36;;;;;;;3.47;1.30;;;9.80;99.90;;;;;;5012809;28;20192;-75
2022/12/22 06:27:02;;;;;;;3.83;0.73;;;9.90;99.90;;;;;;5012897;28;20663;-74
2022/12/22 06:29:27;;;;;;;8.53;1.37;;;9.90;99.90;;;;;;5012630;28;20234;-74
2022/12/22 06:31:53;;;;;;;7.93;2.00;;;9.90;99.90;;;;;;5012534;28;20220;-74
2022/12/22 06:34:18;;;;;;;1.33;0.90;;;9.90;99.90;;;;;;5012972;28;20193;-75
2022/12/22 06:36:45;;;;;;;2.70;0.73;;;10.00;99.90;;;;;;5013605;28;20182;-75
2022/12/22 06:39:12;;;;;;;5.07;0.80;;;10.00;99.90;;;;;;5012735;28;20291;-75
2022/12/22 06:44:21;;;;;;;2.17;1.20;;;10.10;99.90;;;;;;5012462;28;21034;-75
2022/12/22 06:46:47;;;;;;;4.73;1.13;;;10.10;99.90;;;;;;4996568;28;20515;-75
2022/12/22 06:49:12;;;;;;;3.30;1.27;;;10.20;99.90;;;;;;5017328;28;20220;-75
2022/12/22 06:51:38;;;;;;;4.80;1.10;;;10.20;99.90;;;;;;5017504;28;20197;-76
2022/12/22 06:54:04;;;;;;;4.20;1.17;;;10.30;99.90;;;;;;5016461;28;20181;-75
2022/12/22 06:56:29;;;;;;;3.50;0.70;;;10.40;99.90;;;;;;5013400;28;20214;-75
2022/12/22 06:58:55;;;;;;;7.87;1.43;;;10.50;99.90;;;;;;5013477;28;20186;-75
2022/12/22 07:01:20;;;;;;;3.43;0.83;;;10.50;99.90;;;;;;5012242;28;20719;-74
2022/12/22 07:03:46;;;;;;;9.60;1.20;;;10.70;99.90;;;;;;5013235;28;20182;-74
2022/12/22 07:06:11;;;;;;;2.60;0.70;;;10.70;99.90;;;;;;5012846;28;20185;-74
2022/12/22 07:08:37;;;;;;;7.10;1.53;;;10.70;99.90;;;;;;5013450;28;20332;-74
2022/12/22 07:11:02;;;;;;;3.10;0.90;;;10.70;99.90;;;;;;5012933;28;20206;-74
2022/12/22 07:13:33;;;;;;;5.47;2.27;;;10.80;99.90;;;;;;5012332;28;20261;-73
2022/12/22 07:16:00;;;;;;;5.57;1.30;;;10.70;99.90;;;;;;5012972;28;20178;-74
2022/12/22 07:18:26;;;;;;;8.83;1.00;;;10.70;99.90;;;;;;5012963;28;20412;-73
2022/12/22 07:20:52;;;;;;;3.53;1.23;;;10.70;99.90;;;;;;5012090;28;20438;-73
2022/12/22 07:23:17;;;;;;;2.87;0.83;;;10.80;99.90;;;;;;5011286;28;20553;-74
2022/12/22 07:25:43;;;;;;;7.70;1.30;;;10.70;99.90;;;;;;5011825;28;20331;-74
2022/12/22 07:28:08;;;;;;;7.33;1.30;;;10.70;99.90;;;;;;5011277;28;20593;-74
2022/12/22 07:30:37;;;;;;;7.50;1.80;;;10.70;99.90;;;;;;5011717;28;20173;-74
2022/12/22 07:33:03;;;;;;;6.60;1.13;;;10.70;99.90;;;;;;5010769;28;20218;-74
2022/12/22 07:35:29;;;;;;;5.60;1.00;;;10.60;99.90;;;;;;5011622;28;21147;-73
2022/12/22 07:37:54;;;;;;;6.10;1.23;;;10.60;99.90;;;;;;5011642;28;20427;-74
2022/12/22 07:40:20;;;;;;;4.93;1.27;;;10.60;99.90;;;;;;5011437;28;20186;-74
2022/12/22 07:42:46;;;;;;;10.73;1.57;;;10.70;99.90;;;;;;5011086;28;20251;-73
2022/12/22 07:45:13;;;;;;;4.93;1.60;;;10.60;99.90;;;;;;5011721;28;20258;-74
2022/12/22 07:47:39;;;;;;;5.47;1.43;;;10.70;99.90;;;;;;5012272;28;20304;-73
2022/12/22 07:50:24;;;;;;;5.80;1.30;;;10.70;99.90;;;;;;5011479;28;20504;-72
2022/12/22 07:53:03;;;;;;;5.00;1.40;;;10.70;99.90;;;;;;5011983;28;20440;-73
2022/12/22 07:55:34;;;;;;;5.30;1.30;;;10.70;99.90;;;;;;5007935;28;20437;-72
2022/12/22 07:57:59;;;;;;;7.20;1.27;;;10.70;99.90;;;;;;5011314;28;20417;-73
2022/12/22 08:00:25;;;;;;;5.90;1.43;;;10.80;99.90;;;;;;5010573;28;20432;-72
2022/12/22 08:02:55;;;;;;;3.50;0.77;;;10.70;99.90;;;;;;4993442;28;20200;-74
2022/12/22 08:05:22;;;;;;;7.27;1.17;;;10.70;99.90;;;;;;5011545;28;20520;-74
2022/12/22 08:07:49;;;;;;;4.33;1.10;;;10.60;99.90;;;;;;5011489;28;20425;-73
2022/12/22 08:10:16;;;;;;;4.03;1.00;;;10.60;99.90;;;;;;5011443;28;20417;-74
2022/12/22 08:12:41;;;;;;;9.93;1.50;;;10.50;99.90;;;;;;5011613;28;20490;-75
2022/12/22 08:15:08;;;;;;;4.73;0.93;;;10.50;99.90;;;;;;5011250;28;20512;-73
2022/12/22 08:17:35;;;;;;;4.27;1.07;;;10.50;99.90;;;;;;5011895;28;20182;-74
2022/12/22 08:20:00;;;;;;;2.80;1.33;;;10.50;99.90;;;;;;5011778;28;20413;-75
2022/12/22 08:22:26;;;;;;;9.47;1.40;;;10.50;99.90;;;;;;5011338;28;20563;-75
2022/12/22 08:24:52;;;;;;;4.70;1.10;;;10.50;99.90;;;;;;5011385;28;20182;-74
2022/12/22 08:27:28;;;;;;;3.90;0.93;;;10.50;99.90;;;;;;5011300;28;20213;-74
2022/12/22 08:29:57;;;;;;;4.33;1.40;;;10.60;99.90;;;;;;5011800;28;20483;-73
2022/12/22 08:32:23;;;;;;;3.50;1.00;;;10.50;99.90;;;;;;5010970;28;20455;-73
2022/12/22 08:34:50;;;;;;;4.40;1.17;;;10.60;99.90;;;;;;5011788;28;20429;-74
2022/12/22 08:37:18;;;;;;;5.87;0.90;;;10.70;99.90;;;;;;5011636;28;20178;-74
2022/12/22 08:39:47;;;;;;;5.17;0.97;;;10.70;99.90;;;;;;5011695;28;20796;-74
2022/12/22 08:42:16;;;;;;;4.40;1.17;;;10.70;99.90;;;;;;5010983;28;20544;-74
2022/12/22 08:44:41;;;;;;;5.20;1.90;;;10.70;99.90;;;;;;5011392;28;20487;-75
2022/12/22 08:47:07;;;;;;;5.83;1.13;;;10.80;99.90;;;;;;5011488;28;20422;-73
2022/12/22 08:49:32;;;;;;;3.50;1.10;;;10.80;99.90;;;;;;5010729;28;20633;-74
2022/12/22 08:51:59;;;;;;;5.90;1.40;;;10.80;99.90;;;;;;5011309;28;20298;-74
2022/12/22 08:54:24;;;;;;;4.13;1.10;;;10.90;99.90;;;;;;4993336;28;20190;-74
2022/12/22 08:56:50;;;;;;;3.47;1.10;;;11.00;99.90;;;;;;5010779;28;20479;-74
2022/12/22 08:59:16;;;;;;;6.60;1.63;;;11.00;99.90;;;;;;5007023;28;20225;-74
2022/12/22 09:01:49;;;;;;;8.00;1.73;;;11.10;99.90;;;;;;5007664;28;20219;-73
2022/12/22 09:04:17;;;;;;;9.80;1.70;;;11.30;99.90;;;;;;5010938;28;20605;-74
2022/12/22 09:06:43;;;;;;;5.17;1.27;;;11.30;99.90;;;;;;5010622;28;20568;-73
2022/12/22 09:09:10;;;;;;;5.03;1.33;;;11.50;99.90;;;;;;5011028;28;20472;-74
2022/12/22 09:11:36;;;;;;;5.00;1.13;;;11.70;99.90;;;;;;5010887;28;20491;-74
2022/12/22 09:14:03;;;;;;;3.60;1.23;;;11.80;99.90;;;;;;5010860;28;20425;-73
2022/12/22 09:16:30;;;;;;;4.13;1.20;;;12.10;99.90;;;;;;5009604;28;20179;-73
2022/12/22 09:18:56;;;;;;;5.80;1.10;;;12.30;99.90;;;;;;5010470;28;20759;-72
2022/12/22 09:21:22;;;;;;;2.20;1.10;;;12.10;99.90;;;;;;5010436;28;20507;-72
2022/12/22 09:23:49;;;;;;;6.57;1.37;;;11.80;99.90;;;;;;4993223;28;20187;-74
2022/12/22 09:26:17;;;;;;;9.03;1.37;;;11.60;99.90;;;;;;4976831;28;20449;-73
2022/12/22 09:28:43;;;;;;;4.43;1.20;;;11.40;99.90;;;;;;5004058;28;20477;-73
2022/12/22 09:31:10;;;;;;;4.63;1.10;;;11.20;99.90;;;;;;4990682;28;20431;-73
2022/12/22 09:33:35;;;;;;;4.30;1.23;;;11.00;99.90;;;;;;5004779;28;20429;-73
2022/12/22 09:36:08;;;;;;;4.23;1.13;;;10.90;99.90;;;;;;5010076;28;20548;-74
2022/12/22 09:38:34;;;;;;;5.53;1.30;;;10.90;99.90;;;;;;5014641;28;20445;-74
2022/12/22 09:41:17;;;;;;;3.60;1.37;;;10.80;99.90;;;;;;5014433;28;20481;-74
2022/12/22 09:43:44;;;;;;;9.33;1.73;;;10.80;99.90;;;;;;5014470;28;20237;-74
2022/12/22 09:46:19;;;;;;;4.87;0.60;;;10.70;99.90;;;;;;5014222;28;20883;-74
2022/12/22 09:48:44;;;;;;;5.97;2.10;;;10.60;99.90;;;;;;5014547;28;20546;-75
2022/12/22 09:51:12;;;;;;;7.60;1.50;;;10.50;99.90;;;;;;5013203;28;20481;-73
2022/12/22 09:53:38;;;;;;;7.00;1.33;;;10.50;99.90;;;;;;5004760;28;20265;-75
2022/12/22 09:56:04;;;;;;;2.43;0.90;;;10.50;99.90;;;;;;5012964;28;20527;-72
2022/12/22 09:58:33;;;;;;;5.03;2.53;;;10.40;99.90;;;;;;4998053;28;20552;-74
2022/12/22 10:01:27;;;;;;;4.17;1.23;;;10.40;99.90;;;;;;4994602;28;20437;-73
2022/12/22 10:04:01;;;;;;;3.67;1.90;;;10.50;99.90;;;;;;4994089;28;20921;-74
2022/12/22 10:06:57;;;;;;;2.23;1.20;;;10.50;99.90;;;;;;4994367;28;20429;-75
2022/12/22 10:09:26;;;;;;;5.37;1.03;;;10.50;99.90;;;;;;5000162;28;20975;-75
2022/12/22 10:11:57;;;;;;;5.70;0.87;;;10.60;99.90;;;;;;4996359;28;20945;-75
2022/12/22 10:14:33;;;;;;;3.13;1.50;;;10.60;99.90;;;;;;5013885;28;20551;-74
2022/12/22 10:17:18;;;;;;;2.67;1.00;;;10.70;99.90;;;;;;5014151;28;20413;-73
2022/12/22 10:19:44;;;;;;;2.63;1.47;;;10.70;99.90;;;;;;5013919;28;20947;-74
2022/12/22 10:22:29;;;;;;;3.83;1.23;;;10.80;99.90;;;;;;5013471;28;20463;-74
2022/12/22 10:24:54;;;;;;;3.90;0.97;;;10.90;99.90;;;;;;5013929;28;20487;-75
2022/12/22 10:27:23;;;;;;;4.87;0.70;;;10.90;99.90;;;;;;5013492;28;20508;-74
2022/12/22 10:29:49;;;;;;;3.90;0.90;;;10.90;99.90;;;;;;5013450;28;20686;-75
2022/12/22 10:32:19;;;;;;;2.97;0.90;;;10.90;99.90;;;;;;5013186;28;20551;-75
2022/12/22 10:35:03;;;;;;;4.20;0.77;;;10.90;99.90;;;;;;5013729;28;20413;-75
2022/12/22 10:37:39;;;;;;;2.40;0.83;;;10.90;99.90;;;;;;5013462;28;20926;-74
2022/12/22 10:40:20;;;;;;;0.93;0.60;;;10.90;99.90;;;;;;5015395;28;20441;-74
2022/12/22 10:42:49;;;;;;;1.60;0.53;;;10.80;99.90;;;;;;5015372;28;20980;-74
2022/12/22 10:45:23;;;;;;;1.40;0.83;;;10.80;99.90;;;;;;5013864;28;20829;-75
2022/12/22 10:47:53;;;;;;;6.40;3.00;;;10.80;99.90;;;;;;5013625;28;20421;-74
2022/12/22 10:50:20;;;;;;;4.00;0.90;;;10.80;99.90;;;;;;5013129;28;20433;-74
2022/12/22 10:52:57;;;;;;;3.60;0.70;;;10.80;99.90;;;;;;5013197;28;20543;-74
2022/12/22 10:55:26;;;;;;;8.33;1.63;;;10.80;99.90;;;;;;5013134;28;20417;-75
2022/12/22 10:58:08;;;;;;;2.03;0.60;;;10.80;99.90;;;;;;5013297;28;20408;-75
2022/12/22 11:00:34;;;;;;;3.77;0.80;;;10.80;99.90;;;;;;5013117;28;20410;-74
2022/12/22 11:03:01;;;;;;;4.70;0.80;;;10.80;99.90;;;;;;5012812;28;20429;-74
2022/12/22 11:05:27;;;;;;;1.60;0.70;;;10.80;99.90;;;;;;5013201;28;20183;-73
2022/12/22 11:07:54;;;;;;;2.97;0.90;;;10.90;99.90;;;;;;5013192;28;20422;-74
2022/12/22 11:10:30;;;;;;;4.00;1.23;;;11.00;99.90;;;;;;4995356;28;20436;-74
2022/12/22 11:13:14;;;;;;;5.83;0.90;;;11.10;99.90;;;;;;5012687;28;20436;-74
2022/12/22 11:16:19;;;;;;;5.73;0.87;;;11.10;99.90;;;;;;5012816;28;20424;-75
2022/12/22 11:19:13;;;;;;;5.33;1.10;;;11.20;99.90;;;;;;5012247;28;20444;-73
2022/12/22 11:22:01;;;;;;;4.30;0.90;;;11.40;99.90;;;;;;4957948;28;20604;-75
2022/12/22 11:24:32;;;;;;;0.60;0.57;;;11.50;99.90;;;;;;5012216;28;20414;-75
2022/12/22 11:27:21;;;;;;;2.13;0.80;;;11.60;99.90;;;;;;5012271;28;20421;-74
2022/12/22 11:30:04;;;;;;;1.90;0.60;;;11.90;99.90;;;;;;5002002;28;20516;-75
2022/12/22 11:32:43;;;;;;;4.53;0.70;;;12.00;99.90;;;;;;5011409;28;20583;-75
2022/12/22 11:35:33;;;;;;;1.07;0.93;;;12.20;99.90;;;;;;5010821;28;20495;-74
2022/12/22 11:38:25;;;;;;;1.43;0.50;;;12.20;99.90;;;;;;5011047;28;20803;-74
2022/12/22 11:41:02;;;;;;;2.50;1.30;;;12.10;99.90;;;;;;5002702;28;20437;-74
2022/12/22 11:43:52;;;;;;;2.03;0.70;;;12.10;99.90;;;;;;5010987;28;20433;-74
2022/12/22 11:46:38;;;;;;;1.13;0.40;;;12.10;99.90;;;;;;5010710;28;20413;-74
2022/12/22 11:49:16;;;;;;;0.70;0.50;;;12.10;99.90;;;;;;5011528;28;20859;-74
2022/12/22 11:52:00;;;;;;;1.50;0.60;;;12.20;99.90;;;;;;5012133;28;21103;-75
2022/12/22 11:54:40;;;;;;;1.93;0.67;;;12.20;99.90;;;;;;5012402;28;20409;-74
2022/12/22 11:57:29;;;;;;;2.90;0.73;;;12.20;99.90;;;;;;5012202;28;20552;-73
2022/12/22 12:00:01;;;;;;;1.47;0.60;;;12.50;99.90;;;;;;5009454;28;20441;-73
2022/12/22 12:03:00;;;;;;;3.70;0.60;;;12.60;99.90;;;;;;5011359;28;20495;-74
2022/12/22 12:06:03;;;;;;;4.03;0.70;;;12.70;99.90;;;;;;5013215;28;20429;-74
2022/12/22 12:08:32;;;;;;;3.33;0.70;;;12.80;99.90;;;;;;4994688;28;20476;-74
2022/12/22 12:11:20;;;;;;;0.63;0.40;;;12.70;99.90;;;;;;5011944;28;20429;-74
2022/12/22 12:14:06;;;;;;;3.17;0.83;;;12.70;99.90;;;;;;5011672;28;20448;-74
2022/12/22 12:16:43;;;;;;;0.90;0.50;;;12.60;99.90;;;;;;5011976;28;20418;-73
2022/12/22 12:19:31;;;;;;;1.70;0.50;;;12.70;99.90;;;;;;5011493;28;20464;-73
2022/12/22 12:21:58;;;;;;;1.83;0.60;;;12.70;99.90;;;;;;5011267;28;20429;-74
2022/12/22 12:25:12;;;;;;;3.27;0.80;;;12.70;99.90;;;;;;5011747;28;20416;-74
2022/12/22 12:28:18;;;;;;;3.37;0.57;;;12.80;99.90;;;;;;5011311;28;20425;-75
2022/12/22 12:30:59;;;;;;;1.03;0.50;;;12.80;99.90;;;;;;5011662;28;20444;-75
2022/12/22 12:33:35;;;;;;;2.00;0.50;;;12.90;99.90;;;;;;5011587;28;20424;-73
2022/12/22 12:36:35;;;;;;;4.20;0.60;;;12.80;99.90;;;;;;5011793;28;20401;-73
2022/12/22 12:39:24;;;;;;;2.20;0.50;;;12.60;99.90;;;;;;5011772;28;20424;-74
2022/12/22 12:42:21;;;;;;;2.50;0.50;;;12.50;99.90;;;;;;5003471;28;20457;-74
2022/12/22 12:44:47;;;;;;;2.33;0.50;;;12.50;99.90;;;;;;5010727;28;20449;-74
2022/12/22 12:47:26;;;;;;;2.10;0.60;;;12.40;99.90;;;;;;5010090;28;20476;-74
2022/12/22 12:50:18;;;;;;;1.97;0.60;;;12.40;99.90;;;;;;5011214;28;20469;-74
2022/12/22 12:52:47;;;;;;;1.17;0.50;;;12.30;99.90;;;;;;4986703;28;20496;-74
2022/12/22 12:55:30;;;;;;;1.50;0.63;;;12.30;99.90;;;;;;5011274;28;20414;-74
2022/12/22 12:58:02;;;;;;;0.83;0.70;;;12.30;99.90;;;;;;5011665;28;20409;-75
2022/12/22 13:00:33;;;;;;;3.57;0.80;;;12.30;99.90;;;;;;4993799;28;20421;-74
2022/12/22 13:03:04;;;;;;;1.30;0.53;;;12.20;99.90;;;;;;5011107;28;20442;-75
2022/12/22 13:05:47;;;;;;;1.00;0.50;;;12.30;99.90;;;;;;5011482;28;20421;-73
2022/12/22 13:08:32;;;;;;;0.80;0.53;;;12.30;99.90;;;;;;5011580;28;20552;-74
2022/12/22 13:10:57;;;;;;;3.93;0.80;;;12.40;99.90;;;;;;5011687;28;20425;-74
2022/12/22 13:13:23;;;;;;;1.83;0.63;;;12.40;99.90;;;;;;5015875;28;20412;-75
2022/12/22 13:16:08;;;;;;;5.30;0.93;;;12.40;99.90;;;;;;5016490;28;20175;-74
2022/12/22 13:18:34;;;;;;;1.93;0.50;;;12.30;99.90;;;;;;5014764;28;20185;-74
2022/12/22 13:21:00;;;;;;;0.77;0.60;;;12.40;99.90;;;;;;5015115;28;20520;-74
2022/12/22 13:23:38;;;;;;;1.03;0.70;;;12.40;99.90;;;;;;5014620;28;20186;-73
2022/12/22 13:26:22;;;;;;;2.17;0.50;;;12.40;99.90;;;;;;5008920;28;20257;-72
2022/12/22 13:29:14;;;;;;;2.20;0.70;;;12.30;99.90;;;;;;4994293;28;20465;-75
2022/12/22 13:31:42;;;;;;;6.03;0.80;;;12.30;99.90;;;;;;4994179;28;20454;-73
2022/12/22 13:34:56;;;;;;;2.10;1.03;;;12.20;99.90;;;;;;5003280;28;20468;-74
2022/12/22 13:37:27;;;;;;;3.40;0.80;;;12.20;99.90;;;;;;5000707;28;20515;-74
2022/12/22 13:40:05;;;;;;;1.77;0.70;;;12.20;99.90;;;;;;4996142;28;20461;-73
2022/12/22 13:42:34;;;;;;;1.30;0.50;;;12.30;99.90;;;;;;5013760;28;21085;-73
2022/12/22 13:45:00;;;;;;;2.03;0.67;;;12.30;99.90;;;;;;5013560;28;20449;-72
2022/12/22 13:47:26;;;;;;;2.10;0.60;;;12.30;99.90;;;;;;5013666;28;20425;-74
2022/12/22 13:49:52;;;;;;;3.60;1.37;;;12.40;99.90;;;;;;5013171;28;20492;-74
2022/12/22 13:52:20;;;;;;;2.40;0.87;;;12.40;99.90;;;;;;5013367;28;20730;-75
2022/12/22 13:54:46;;;;;;;1.80;0.90;;;12.30;99.90;;;;;;4997428;28;20481;-73
2022/12/22 13:57:20;;;;;;;1.27;0.60;;;12.30;99.90;;;;;;5015139;28;20437;-74
2022/12/22 13:59:49;;;;;;;0.80;0.60;;;12.30;99.90;;;;;;5014626;28;20440;-73
2022/12/22 14:02:17;;;;;;;4.50;0.63;;;12.20;99.90;;;;;;5014092;28;20515;-74
2022/12/22 14:05:07;;;;;;;1.83;0.67;;;12.20;99.90;;;;;;5013965;28;20528;-73
2022/12/22 14:07:33;;;;;;;3.17;1.20;;;12.20;99.90;;;;;;5014690;28;20437;-75
2022/12/22 14:09:58;;;;;;;3.10;0.60;;;12.20;99.90;;;;;;5013750;28;20612;-73
2022/12/22 14:12:28;;;;;;;1.27;0.60;;;12.20;99.90;;;;;;5012855;28;20202;-75
2022/12/22 14:14:55;;;;;;;2.83;0.73;;;12.10;99.90;;;;;;5013370;28;20801;-74
2022/12/22 14:17:33;;;;;;;3.30;0.67;;;12.10;99.90;;;;;;5013078;28;20464;-74
2022/12/22 14:20:07;;;;;;;1.93;0.60;;;12.10;99.90;;;;;;5013226;28;20771;-74
2022/12/22 14:22:37;;;;;;;1.67;0.60;;;12.00;99.90;;;;;;5011736;28;20449;-74
2022/12/22 14:25:12;;;;;;;4.40;0.90;;;12.00;99.90;;;;;;5013050;28;20441;-74
2022/12/22 14:27:45;;;;;;;3.70;0.77;;;12.00;99.90;;;;;;5013846;28;20496;-74
2022/12/22 14:30:34;;;;;;;3.70;0.60;;;12.00;99.90;;;;;;5013873;28;20512;-73
2022/12/22 14:33:29;;;;;;;5.20;0.50;;;12.00;99.90;;;;;;5013343;28;20449;-74
2022/12/22 14:36:22;;;;;;;3.83;0.60;;;12.00;99.90;;;;;;5013979;28;20402;-74
2022/12/22 14:38:56;;;;;;;3.70;1.03;;;12.00;99.90;;;;;;5013308;28;20432;-74
2022/12/22 14:41:49;;;;;;;2.60;0.70;;;11.90;99.90;;;;;;5013292;28;20832;-74
2022/12/22 14:44:18;;;;;;;4.10;0.83;;;11.80;99.90;;;;;;5013746;28;20956;-74
2022/12/22 14:46:47;;;;;;;4.63;1.20;;;11.80;99.90;;;;;;5013840;28;20418;-73
2022/12/22 14:49:15;;;;;;;5.03;1.27;;;11.90;99.90;;;;;;5013244;28;20909;-73
2022/12/22 14:51:41;;;;;;;11.77;1.00;;;11.80;99.90;;;;;;5013152;28;20509;-73
2022/12/22 14:54:22;;;;;;;5.63;1.07;;;11.80;99.90;;;;;;4995537;28;20522;-73
2022/12/22 14:56:51;;;;;;;4.50;0.70;;;11.70;99.90;;;;;;4993804;28;20171;-76
2022/12/22 14:59:28;;;;;;;5.50;1.20;;;11.70;99.90;;;;;;4993505;28;20428;-73
2022/12/22 15:02:19;;;;;;;11.60;3.30;;;11.70;99.90;;;;;;4993477;28;20466;-73
2022/12/22 15:04:44;;;;;;;7.13;2.30;;;11.60;99.90;;;;;;4993583;28;20538;-73
2022/12/22 15:07:19;;;;;;;5.87;2.40;;;11.60;99.90;;;;;;4993485;28;20898;-74
2022/12/22 15:09:44;;;;;;;14.10;2.17;;;11.60;99.90;;;;;;5002983;28;20212;-74
2022/12/22 15:12:17;;;;;;;5.47;2.20;;;11.50;99.90;;;;;;5019735;28;20449;-73
2022/12/22 15:14:46;;;;;;;9.57;1.97;;;11.50;99.90;;;;;;5013331;28;20266;-74
2022/12/22 15:17:30;;;;;;;6.03;2.90;;;11.40;99.90;;;;;;5013151;28;20442;-73
2022/12/22 15:19:57;;;;;;;3.10;1.23;;;11.30;99.90;;;;;;5024304;28;20973;-74
2022/12/22 15:22:23;;;;;;;7.50;1.93;;;11.40;99.90;;;;;;5032376;28;20464;-74
2022/12/22 15:24:49;;;;;;;8.23;2.30;;;11.30;99.90;;;;;;5032745;28;20852;-74
2022/12/22 15:27:14;;;;;;;7.90;2.77;;;11.30;99.90;;;;;;5029554;28;20178;-73
2022/12/22 15:29:40;;;;;;;6.20;2.27;;;11.30;99.90;;;;;;5012565;28;20203;-72
2022/12/22 15:32:12;;;;;;;4.27;1.50;;;11.20;99.90;;;;;;5013033;28;20206;-73
2022/12/22 15:34:38;;;;;;;12.10;2.20;;;11.20;99.90;;;;;;5012514;28;20253;-73
2022/12/22 15:37:04;;;;;;;8.23;3.57;;;11.20;99.90;;;;;;5012419;28;20498;-74
2022/12/22 15:39:29;;;;;;;7.77;3.27;;;11.20;99.90;;;;;;5027591;28;20484;-73
2022/12/22 15:41:55;;;;;;;4.70;2.00;;;11.10;99.90;;;;;;5012070;28;20237;-73
2022/12/22 15:44:21;;;;;;;10.40;4.23;;;11.10;99.90;;;;;;5011610;28;20179;-74
2022/12/22 15:46:55;;;;;;;6.47;1.63;;;11.10;99.90;;;;;;5012302;28;20204;-74
2022/12/22 15:49:27;;;;;;;12.40;4.30;;;11.10;99.90;;;;;;5011778;28;20465;-67
2022/12/22 15:51:57;;;;;;;5.17;1.43;;;11.00;99.90;;;;;;5012871;28;20464;-70
2022/12/22 15:54:25;;;;;;;12.02;4.82;;;11.00;99.90;;;;;;4993426;28;20465;-75
2022/12/22 15:56:52;;;;;;;17.43;8.77;;;10.90;99.90;;;;;;5012977;28;20584;-74
2022/12/22 15:59:22;;;;;;;18.50;6.77;;;10.90;99.90;;;;;;5012128;28;20463;-74
2022/12/22 16:01:49;;;;;;;7.43;1.50;;;10.90;99.90;;;;;;5011424;28;20452;-74
2022/12/22 16:04:15;;;;;;;9.40;4.00;;;10.80;99.90;;;;;;5012209;28;20409;-75
2022/12/22 16:06:41;;;;;;;6.27;1.60;;;10.80;99.90;;;;;;5011909;28;20444;-74
2022/12/22 16:09:15;;;;;;;5.77;3.00;;;10.80;99.90;;;;;;5011890;28;20488;-75
2022/12/22 16:11:40;;;;;;;11.70;4.57;;;10.90;99.90;;;;;;4995080;28;20664;-75
2022/12/22 16:14:11;;;;;;;4.10;2.23;;;10.80;99.90;;;;;;5011946;28;20467;-76
2022/12/22 16:16:37;;;;;;;8.87;2.70;;;10.70;99.90;;;;;;5012042;28;20170;-75
2022/12/22 16:19:03;;;;;;;11.50;2.37;;;10.70;99.90;;;;;;5011670;28;20513;-75
2022/12/22 16:21:31;;;;;;;10.00;1.97;;;10.60;99.90;;;;;;5011788;28;20538;-75
2022/12/22 16:23:59;;;;;;;6.50;2.10;;;10.60;99.90;;;;;;5011828;28;20280;-75
2022/12/22 16:26:25;;;;;;;4.00;1.20;;;10.50;99.90;;;;;;5011972;28;20418;-75
2022/12/22 16:28:50;;;;;;;9.07;1.83;;;10.40;99.90;;;;;;5011776;28;20476;-75
2022/12/22 16:31:19;;;;;;;6.53;1.90;;;10.40;99.90;;;;;;5011551;28;20213;-75
2022/12/22 16:33:44;;;;;;;4.90;2.50;;;10.30;99.90;;;;;;5011820;28;20531;-76
2022/12/22 16:36:10;;;;;;;7.23;2.30;;;10.30;99.90;;;;;;5011377;28;20487;-75
2022/12/22 16:38:36;;;;;;;5.33;1.50;;;10.20;99.90;;;;;;5011692;28;20221;-75
2022/12/22 16:41:02;;;;;;;4.17;2.27;;;10.20;99.90;;;;;;5011439;28;20198;-75
2022/12/22 16:43:37;;;;;;;6.73;2.10;;;10.00;99.90;;;;;;5010032;28;20209;-75
2022/12/22 16:46:05;;;;;;;6.43;2.83;;;10.00;99.90;;;;;;4994815;28;20471;-75
2022/12/22 16:48:39;;;;;;;4.60;1.50;;;10.00;99.90;;;;;;5017883;28;20464;-74